Time;durP1;ratioP1;P1;durP2;ratioP2;P2;SDS_P1;SDS_P2;PMS_P1;PMS_P2;Temp;Humidity;BMP_temperature;BMP_pressure;BME280_temperature;BME280_humidity;BME280_pressure;Samples;Min_cycle;Max_cycle;Signal;HPM_P1;HPM_P2
2024/02/24 00:00:31;;;;;;;0.95;0.80;;;;;;;;;;5014679;28;58431;-76
2024/02/24 00:02:56;;;;;;;2.23;1.17;;;;;;;;;;5014398;28;58989;-76
2024/02/24 00:05:26;;;;;;;1.60;1.27;;;;;;;;;;5014036;28;58407;-75
2024/02/24 00:07:53;;;;;;;3.50;1.45;;;;;;;;;;5021126;28;60515;-74
2024/02/24 00:10:19;;;;;;;2.50;1.55;;;;;;;;;;5024821;28;58384;-79
2024/02/24 00:12:44;;;;;;;1.42;1.13;;;;;;;;;;5026300;28;58412;-79
2024/02/24 00:15:09;;;;;;;5.03;1.40;;;;;;;;;;5025233;28;58459;-80
2024/02/24 00:17:36;;;;;;;2.47;1.45;;;;;;;;;;5027381;28;58433;-80
2024/02/24 00:20:02;;;;;;;2.28;1.17;;;;;;;;;;5026659;28;58880;-75
2024/02/24 00:22:27;;;;;;;2.35;1.40;;;;;;;;;;5016045;28;59562;-75
2024/02/24 00:24:52;;;;;;;1.30;1.20;;;;;;;;;;5014001;28;58494;-75
2024/02/24 00:27:17;;;;;;;2.00;0.80;;;;;;;;;;5013414;28;59765;-75
2024/02/24 00:29:43;;;;;;;2.13;1.27;;;;;;;;;;5012634;28;59007;-75
2024/02/24 00:32:08;;;;;;;1.92;1.20;;;;;;;;;;5026291;28;58427;-75
2024/02/24 00:34:34;;;;;;;1.60;1.10;;;;;;;;;;5022249;28;58601;-76
2024/02/24 00:36:59;;;;;;;2.30;1.23;;;;;;;;;;5017307;28;58371;-75
2024/02/24 00:39:24;;;;;;;2.60;1.50;;;;;;;;;;5019371;28;60420;-75
2024/02/24 00:41:52;;;;;;;1.50;0.70;;;;;;;;;;5023593;28;60811;-75
2024/02/24 00:44:17;;;;;;;0.98;0.70;;;;;;;;;;5025179;28;58461;-74
2024/02/24 00:46:42;;;;;;;2.42;0.70;;;;;;;;;;5024454;28;59472;-74
2024/02/24 00:49:08;;;;;;;1.50;1.00;;;;;;;;;;5018815;28;59670;-75
2024/02/24 00:51:33;;;;;;;1.17;0.70;;;;;;;;;;5014137;28;58586;-75
2024/02/24 00:53:58;;;;;;;1.75;1.00;;;;;;;;;;5016963;28;59113;-75
2024/02/24 00:56:23;;;;;;;1.88;0.77;;;;;;;;;;5025333;28;58493;-75
2024/02/24 00:58:48;;;;;;;3.40;1.43;;;;;;;;;;5024158;28;59539;-75
2024/02/24 01:01:14;;;;;;;1.50;1.40;;;;;;;;;;5016560;28;58670;-74
2024/02/24 01:03:39;;;;;;;1.60;1.23;;;;;;;;;;5020210;28;58374;-74
2024/02/24 01:06:04;;;;;;;1.20;1.07;;;;;;;;;;5023060;28;59590;-75
2024/02/24 01:08:29;;;;;;;2.47;0.97;;;;;;;;;;5026091;28;58475;-75
2024/02/24 01:10:54;;;;;;;1.07;0.63;;;;;;;;;;5012903;28;58497;-74
2024/02/24 01:13:19;;;;;;;1.73;1.13;;;;;;;;;;5013131;28;59514;-75
2024/02/24 01:15:45;;;;;;;1.13;0.90;;;;;;;;;;5015421;28;58737;-74
2024/02/24 01:18:10;;;;;;;0.97;0.90;;;;;;;;;;5019018;28;61022;-75
2024/02/24 01:20:35;;;;;;;0.95;0.70;;;;;;;;;;5027876;28;58854;-75
2024/02/24 01:23:00;;;;;;;1.53;1.03;;;;;;;;;;5017019;28;58539;-75
2024/02/24 01:25:26;;;;;;;0.90;0.90;;;;;;;;;;5017094;28;59395;-75
2024/02/24 01:27:51;;;;;;;0.50;0.50;;;;;;;;;;5016241;28;59003;-74
2024/02/24 01:30:16;;;;;;;0.60;0.60;;;;;;;;;;5014805;28;58557;-75
2024/02/24 01:32:42;;;;;;;0.60;0.60;;;;;;;;;;5018492;28;59239;-75
2024/02/24 01:35:07;;;;;;;0.83;0.70;;;;;;;;;;5016812;28;59233;-74
2024/02/24 01:37:33;;;;;;;1.10;0.68;;;;;;;;;;5016894;28;58412;-74
2024/02/24 01:39:58;;;;;;;0.80;0.52;;;;;;;;;;5014558;28;59078;-74
2024/02/24 01:42:23;;;;;;;1.70;0.60;;;;;;;;;;5016277;28;58497;-74
2024/02/24 01:44:48;;;;;;;1.30;0.90;;;;;;;;;;5019831;28;59272;-74
2024/02/24 01:47:13;;;;;;;2.35;0.95;;;;;;;;;;5028993;28;58728;-75
2024/02/24 01:49:40;;;;;;;0.75;0.45;;;;;;;;;;5018266;28;58435;-75
2024/02/24 01:52:06;;;;;;;0.75;0.75;;;;;;;;;;5017018;28;59426;-75
2024/02/24 01:54:31;;;;;;;1.45;0.73;;;;;;;;;;5014370;28;59816;-74
2024/02/24 01:56:56;;;;;;;1.33;0.93;;;;;;;;;;5017159;28;58338;-74
2024/02/24 01:59:21;;;;;;;1.30;0.50;;;;;;;;;;5016941;28;58863;-74
2024/02/24 02:01:47;;;;;;;0.75;0.70;;;;;;;;;;5009847;28;58539;-75
2024/02/24 02:04:12;;;;;;;0.80;0.70;;;;;;;;;;5013049;28;60128;-74
2024/02/24 02:06:37;;;;;;;1.43;1.00;;;;;;;;;;5015575;28;58573;-75
2024/02/24 02:09:02;;;;;;;0.73;0.47;;;;;;;;;;5016965;28;58363;-75
2024/02/24 02:11:28;;;;;;;1.08;0.70;;;;;;;;;;5029173;28;59704;-74
2024/02/24 02:13:53;;;;;;;2.23;0.60;;;;;;;;;;5017261;28;59970;-75
2024/02/24 02:16:19;;;;;;;1.70;0.77;;;;;;;;;;5018678;28;58630;-75
2024/02/24 02:18:44;;;;;;;1.13;0.80;;;;;;;;;;5022480;28;59446;-75
2024/02/24 02:21:09;;;;;;;0.47;0.38;;;;;;;;;;5027918;28;58510;-74
2024/02/24 02:23:34;;;;;;;0.75;0.52;;;;;;;;;;5016622;28;59445;-75
2024/02/24 02:26:00;;;;;;;0.63;0.63;;;;;;;;;;5023868;28;58902;-74
2024/02/24 02:28:25;;;;;;;0.77;0.70;;;;;;;;;;5019662;28;58457;-74
2024/02/24 02:30:51;;;;;;;0.80;0.70;;;;;;;;;;5021321;28;60292;-80
2024/02/24 02:33:16;;;;;;;0.70;0.63;;;;;;;;;;5025384;28;59287;-80
2024/02/24 02:35:41;;;;;;;0.90;0.70;;;;;;;;;;5016192;28;58511;-79
2024/02/24 02:38:09;;;;;;;0.43;0.43;;;;;;;;;;5015223;28;60402;-80
2024/02/24 02:40:34;;;;;;;0.75;0.43;;;;;;;;;;5024003;28;59926;-79
2024/02/24 02:42:59;;;;;;;1.20;0.77;;;;;;;;;;5023523;28;59380;-79
2024/02/24 02:45:24;;;;;;;0.53;0.50;;;;;;;;;;5015500;28;58884;-80
2024/02/24 02:47:50;;;;;;;0.67;0.50;;;;;;;;;;5016551;28;58213;-79
2024/02/24 02:53:18;;;;;;;1.65;1.02;;;;;;;;;;5027135;28;61642;-80
2024/02/24 02:55:43;;;;;;;0.93;0.77;;;;;;;;;;5028516;27;58499;-80
2024/02/24 02:58:08;;;;;;;0.90;0.67;;;;;;;;;;5022175;28;59943;-80
2024/02/24 03:00:34;;;;;;;0.70;0.30;;;;;;;;;;5020799;28;59022;-79
2024/02/24 03:02:59;;;;;;;1.30;0.67;;;;;;;;;;5025934;28;58710;-80
2024/02/24 03:05:25;;;;;;;0.60;0.50;;;;;;;;;;5016723;28;58877;-80
2024/02/24 03:07:50;;;;;;;0.50;0.50;;;;;;;;;;5015185;28;58531;-80
2024/02/24 03:10:15;;;;;;;1.13;0.80;;;;;;;;;;5023029;28;59716;-80
2024/02/24 03:12:40;;;;;;;1.47;0.70;;;;;;;;;;5025493;28;58415;-79
2024/02/24 03:15:06;;;;;;;1.42;0.45;;;;;;;;;;5027632;28;58151;-80
2024/02/24 03:17:31;;;;;;;1.20;0.40;;;;;;;;;;5016249;28;59493;-79
2024/02/24 03:19:56;;;;;;;0.82;0.47;;;;;;;;;;5024967;28;59541;-80
2024/02/24 03:22:21;;;;;;;1.23;0.30;;;;;;;;;;5020104;28;58543;-79
2024/02/24 03:24:46;;;;;;;0.50;0.50;;;;;;;;;;5019016;28;59396;-80
2024/02/24 03:27:11;;;;;;;2.30;1.03;;;;;;;;;;5016254;28;58461;-79
2024/02/24 03:29:37;;;;;;;0.90;0.60;;;;;;;;;;5028046;28;59905;-79
2024/02/24 03:32:03;;;;;;;0.68;0.52;;;;;;;;;;5017557;28;58838;-79
2024/02/24 03:34:28;;;;;;;0.55;0.40;;;;;;;;;;5024974;28;58345;-79
2024/02/24 03:36:53;;;;;;;0.40;0.40;;;;;;;;;;5021038;28;59185;-80
2024/02/24 03:39:18;;;;;;;0.77;0.52;;;;;;;;;;5015377;28;58706;-79
2024/02/24 03:41:44;;;;;;;0.60;0.50;;;;;;;;;;5016925;28;58280;-78
2024/02/24 03:44:09;;;;;;;1.27;0.30;;;;;;;;;;5026585;28;58984;-80
2024/02/24 03:46:34;;;;;;;0.50;0.50;;;;;;;;;;5024603;28;59880;-79
2024/02/24 03:48:59;;;;;;;0.52;0.32;;;;;;;;;;5028356;28;60175;-79
2024/02/24 03:51:24;;;;;;;0.50;0.50;;;;;;;;;;5021619;28;59422;-74
2024/02/24 03:53:49;;;;;;;1.45;0.52;;;;;;;;;;5016645;28;58482;-74
2024/02/24 03:56:14;;;;;;;0.55;0.50;;;;;;;;;;5015277;28;60178;-74
2024/02/24 03:58:40;;;;;;;0.40;0.40;;;;;;;;;;5014066;28;58557;-75
2024/02/24 04:01:06;;;;;;;0.60;0.52;;;;;;;;;;5017059;28;58564;-74
2024/02/24 04:03:31;;;;;;;0.68;0.65;;;;;;;;;;5014576;28;59901;-74
2024/02/24 04:05:56;;;;;;;0.70;0.60;;;;;;;;;;5014225;28;59028;-75
2024/02/24 04:08:21;;;;;;;0.40;0.40;;;;;;;;;;5016664;28;58405;-75
2024/02/24 04:10:46;;;;;;;0.40;0.40;;;;;;;;;;5024297;28;59660;-75
2024/02/24 04:13:11;;;;;;;0.20;0.20;;;;;;;;;;5018752;28;58453;-75
2024/02/24 04:15:37;;;;;;;0.20;0.20;;;;;;;;;;5017799;28;58468;-75
2024/02/24 04:18:03;;;;;;;0.23;0.23;;;;;;;;;;5016698;28;58403;-74
2024/02/24 04:20:28;;;;;;;0.30;0.30;;;;;;;;;;5019378;28;58071;-74
2024/02/24 04:22:54;;;;;;;0.87;0.40;;;;;;;;;;5025797;28;59066;-75
2024/02/24 04:25:19;;;;;;;0.60;0.40;;;;;;;;;;5015818;28;59936;-75
2024/02/24 04:27:44;;;;;;;0.33;0.30;;;;;;;;;;5020783;28;58216;-74
2024/02/24 04:30:09;;;;;;;0.65;0.30;;;;;;;;;;5025054;28;58387;-74
2024/02/24 04:32:34;;;;;;;0.60;0.33;;;;;;;;;;5026894;28;58429;-74
2024/02/24 04:35:00;;;;;;;0.20;0.20;;;;;;;;;;5026947;28;59354;-75
2024/02/24 04:37:25;;;;;;;0.57;0.47;;;;;;;;;;5026050;28;58453;-75
2024/02/24 04:39:52;;;;;;;0.40;0.40;;;;;;;;;;5016724;28;58472;-74
2024/02/24 04:42:17;;;;;;;0.35;0.35;;;;;;;;;;5007945;28;59610;-76
2024/02/24 04:44:47;;;;;;;0.30;0.30;;;;;;;;;;5014565;28;58350;-75
2024/02/24 04:47:12;;;;;;;0.45;0.40;;;;;;;;;;5003911;28;58389;-75
2024/02/24 04:49:37;;;;;;;0.88;0.73;;;;;;;;;;5021509;28;59450;-74
2024/02/24 04:52:04;;;;;;;0.43;0.43;;;;;;;;;;5028839;28;58554;-75
2024/02/24 04:54:29;;;;;;;0.30;0.30;;;;;;;;;;5027445;28;59904;-74
2024/02/24 04:56:54;;;;;;;0.80;0.70;;;;;;;;;;5028221;27;58746;-74
2024/02/24 04:59:20;;;;;;;0.77;0.40;;;;;;;;;;5028881;28;58488;-75
2024/02/24 05:01:45;;;;;;;0.98;0.40;;;;;;;;;;5022021;28;59516;-74
2024/02/24 05:04:10;;;;;;;0.43;0.40;;;;;;;;;;5019191;28;58429;-74
2024/02/24 05:06:35;;;;;;;0.67;0.67;;;;;;;;;;5019263;28;58431;-75
2024/02/24 05:09:00;;;;;;;0.40;0.40;;;;;;;;;;5020906;28;58411;-74
2024/02/24 05:11:25;;;;;;;0.23;0.23;;;;;;;;;;5029336;28;58579;-75
2024/02/24 05:13:50;;;;;;;0.50;0.50;;;;;;;;;;5019889;28;58407;-74
2024/02/24 05:16:16;;;;;;;1.33;0.73;;;;;;;;;;5017319;28;59067;-75
2024/02/24 05:18:41;;;;;;;0.50;0.35;;;;;;;;;;5017550;28;58359;-74
2024/02/24 05:21:06;;;;;;;0.57;0.57;;;;;;;;;;5017154;28;59460;-75
2024/02/24 05:23:32;;;;;;;0.70;0.70;;;;;;;;;;5018503;28;59057;-75
2024/02/24 05:25:57;;;;;;;0.73;0.50;;;;;;;;;;5026997;28;58506;-74
2024/02/24 05:28:22;;;;;;;0.22;0.22;;;;;;;;;;5020085;28;59626;-75
2024/02/24 05:30:47;;;;;;;0.30;0.30;;;;;;;;;;5017319;28;59046;-74
2024/02/24 05:33:12;;;;;;;0.43;0.43;;;;;;;;;;5019452;28;58305;-75
2024/02/24 05:35:38;;;;;;;0.32;0.32;;;;;;;;;;5028681;28;60168;-74
2024/02/24 05:38:03;;;;;;;0.30;0.30;;;;;;;;;;5025017;28;58502;-74
2024/02/24 05:40:28;;;;;;;0.37;0.30;;;;;;;;;;5025752;28;60126;-74
2024/02/24 05:42:53;;;;;;;0.40;0.28;;;;;;;;;;5024788;28;58589;-74
2024/02/24 05:45:18;;;;;;;0.30;0.30;;;;;;;;;;5026450;28;58372;-74
2024/02/24 05:47:43;;;;;;;0.35;0.20;;;;;;;;;;5027990;28;60092;-75
2024/02/24 05:50:09;;;;;;;0.80;0.67;;;;;;;;;;5028955;28;58786;-75
2024/02/24 05:52:35;;;;;;;0.65;0.40;;;;;;;;;;5027416;28;58757;-75
2024/02/24 05:55:00;;;;;;;0.57;0.50;;;;;;;;;;5024408;28;59791;-74
2024/02/24 05:57:26;;;;;;;0.40;0.40;;;;;;;;;;5020993;28;58513;-74
2024/02/24 05:59:51;;;;;;;0.50;0.50;;;;;;;;;;5026258;28;60758;-74
2024/02/24 06:02:16;;;;;;;0.53;0.30;;;;;;;;;;5008894;28;58337;-75
2024/02/24 06:04:41;;;;;;;0.35;0.35;;;;;;;;;;5009726;28;58349;-76
2024/02/24 06:07:07;;;;;;;0.37;0.37;;;;;;;;;;5011549;28;59452;-75
2024/02/24 06:09:32;;;;;;;0.57;0.35;;;;;;;;;;5016292;28;60293;-75
2024/02/24 06:11:57;;;;;;;0.30;0.30;;;;;;;;;;5027505;28;58470;-74
2024/02/24 06:14:23;;;;;;;0.60;0.60;;;;;;;;;;5018767;28;58547;-75
2024/02/24 06:16:48;;;;;;;0.20;0.20;;;;;;;;;;5016487;28;58782;-75
2024/02/24 06:19:13;;;;;;;0.73;0.40;;;;;;;;;;5020837;28;58345;-80
2024/02/24 06:21:38;;;;;;;1.10;0.50;;;;;;;;;;5018321;28;59681;-79
2024/02/24 06:24:03;;;;;;;0.50;0.50;;;;;;;;;;5018480;28;58446;-79
2024/02/24 06:26:28;;;;;;;0.40;0.40;;;;;;;;;;5027615;28;58596;-78
2024/02/24 06:28:55;;;;;;;0.52;0.45;;;;;;;;;;5019143;28;58480;-80
2024/02/24 06:31:20;;;;;;;1.33;0.47;;;;;;;;;;5010518;28;58626;-79
2024/02/24 06:33:45;;;;;;;0.40;0.40;;;;;;;;;;5008879;28;58576;-79
2024/02/24 06:36:10;;;;;;;0.75;0.52;;;;;;;;;;5015711;28;58655;-80
2024/02/24 06:38:35;;;;;;;0.47;0.47;;;;;;;;;;5017097;28;59203;-79
2024/02/24 06:41:00;;;;;;;1.43;1.20;;;;;;;;;;5016312;28;58954;-79
2024/02/24 06:43:26;;;;;;;0.52;0.38;;;;;;;;;;5023304;28;58516;-80
2024/02/24 06:45:51;;;;;;;0.30;0.30;;;;;;;;;;5024841;28;59556;-79
2024/02/24 06:48:16;;;;;;;0.67;0.67;;;;;;;;;;5013576;28;59688;-80
2024/02/24 06:50:41;;;;;;;0.27;0.27;;;;;;;;;;5019843;28;58413;-79
2024/02/24 06:53:06;;;;;;;0.80;0.40;;;;;;;;;;5026782;28;59137;-80
2024/02/24 06:55:32;;;;;;;0.63;0.40;;;;;;;;;;5027309;28;59464;-80
2024/02/24 06:57:57;;;;;;;0.55;0.35;;;;;;;;;;5029292;27;58349;-79
2024/02/24 07:00:23;;;;;;;0.22;0.22;;;;;;;;;;5024507;28;58509;-80
2024/02/24 07:02:49;;;;;;;0.28;0.25;;;;;;;;;;5018730;28;58370;-79
2024/02/24 07:05:14;;;;;;;1.02;0.70;;;;;;;;;;5007159;28;58478;-79
2024/02/24 07:07:39;;;;;;;0.43;0.43;;;;;;;;;;5006794;28;58668;-80
2024/02/24 07:10:04;;;;;;;0.47;0.30;;;;;;;;;;5010516;28;58453;-80
2024/02/24 07:12:33;;;;;;;0.30;0.30;;;;;;;;;;5012984;28;60507;-79
2024/02/24 07:14:58;;;;;;;0.60;0.60;;;;;;;;;;5026859;28;59182;-80
2024/02/24 07:17:23;;;;;;;0.93;0.70;;;;;;;;;;5026747;28;58412;-80
2024/02/24 07:19:49;;;;;;;2.33;0.47;;;;;;;;;;5030260;28;59530;-74
2024/02/24 07:22:15;;;;;;;0.50;0.40;;;;;;;;;;5028839;28;58373;-75
2024/02/24 07:24:40;;;;;;;0.50;0.50;;;;;;;;;;5023484;28;59211;-73
2024/02/24 07:27:05;;;;;;;0.35;0.35;;;;;;;;;;5014607;28;59699;-75
2024/02/24 07:29:31;;;;;;;0.37;0.37;;;;;;;;;;5016591;28;59191;-75
2024/02/24 07:31:56;;;;;;;0.85;0.40;;;;;;;;;;5015327;28;59972;-75
2024/02/24 07:34:21;;;;;;;0.43;0.40;;;;;;;;;;5015340;28;58560;-74
2024/02/24 07:36:46;;;;;;;0.43;0.20;;;;;;;;;;5015365;28;58500;-75
2024/02/24 07:39:12;;;;;;;0.40;0.40;;;;;;;;;;5016113;28;59350;-75
2024/02/24 07:41:43;;;;;;;0.43;0.40;;;;;;;;;;5027155;28;59704;-74
2024/02/24 07:44:08;;;;;;;0.65;0.47;;;;;;;;;;5016830;28;61421;-75
2024/02/24 07:46:33;;;;;;;0.67;0.67;;;;;;;;;;5024685;28;58755;-74
2024/02/24 07:48:59;;;;;;;0.70;0.40;;;;;;;;;;5027700;28;58179;-74
2024/02/24 07:51:25;;;;;;;1.13;0.60;;;;;;;;;;5021407;28;59565;-74
2024/02/24 07:53:51;;;;;;;0.70;0.65;;;;;;;;;;5010751;28;58454;-74
2024/02/24 07:56:16;;;;;;;0.43;0.43;;;;;;;;;;5024572;28;58377;-74
2024/02/24 07:58:41;;;;;;;0.57;0.50;;;;;;;;;;5025821;28;59406;-74
2024/02/24 08:01:06;;;;;;;1.13;0.80;;;;;;;;;;5025569;28;59823;-74
2024/02/24 08:03:31;;;;;;;1.73;0.40;;;;;;;;;;5025012;28;58678;-75
2024/02/24 08:05:57;;;;;;;0.30;0.30;;;;;;;;;;5012112;28;59904;-74
2024/02/24 08:08:22;;;;;;;0.65;0.65;;;;;;;;;;5015914;28;58966;-74
2024/02/24 08:10:47;;;;;;;0.57;0.30;;;;;;;;;;5010262;28;58651;-74
2024/02/24 08:13:12;;;;;;;0.63;0.40;;;;;;;;;;5020196;28;58613;-75
2024/02/24 08:15:37;;;;;;;0.50;0.50;;;;;;;;;;5022153;28;58425;-75
2024/02/24 08:18:02;;;;;;;0.83;0.47;;;;;;;;;;5017453;28;60312;-74
2024/02/24 08:20:27;;;;;;;0.33;0.30;;;;;;;;;;5024265;28;59030;-75
2024/02/24 08:22:53;;;;;;;0.73;0.47;;;;;;;;;;5026386;27;58414;-75
2024/02/24 08:25:18;;;;;;;0.30;0.30;;;;;;;;;;5023411;28;59191;-75
2024/02/24 08:27:43;;;;;;;0.77;0.47;;;;;;;;;;5024539;28;58461;-74
2024/02/24 08:30:08;;;;;;;2.23;0.57;;;;;;;;;;5027871;28;58543;-78
2024/02/24 08:32:33;;;;;;;3.53;0.80;;;;;;;;;;5026769;28;59800;-79
2024/02/24 08:34:59;;;;;;;0.57;0.57;;;;;;;;;;5011545;28;58376;-80
2024/02/24 08:37:24;;;;;;;0.52;0.52;;;;;;;;;;5011318;28;59087;-80
2024/02/24 08:39:49;;;;;;;2.03;0.50;;;;;;;;;;5011878;28;58499;-78
2024/02/24 08:42:14;;;;;;;1.27;0.20;;;;;;;;;;5016616;28;58415;-80
2024/02/24 08:44:39;;;;;;;0.60;0.60;;;;;;;;;;5016051;28;58591;-80
2024/02/24 08:47:04;;;;;;;0.33;0.33;;;;;;;;;;5026080;28;59704;-80
2024/02/24 08:49:30;;;;;;;0.67;0.67;;;;;;;;;;5018453;28;59498;-80
2024/02/24 08:51:55;;;;;;;0.53;0.17;;;;;;;;;;5011390;28;59322;-79
2024/02/24 08:54:20;;;;;;;1.77;0.43;;;;;;;;;;5018233;28;58365;-80
2024/02/24 08:56:46;;;;;;;1.23;0.60;;;;;;;;;;5025661;28;60797;-80
2024/02/24 08:59:11;;;;;;;2.17;0.40;;;;;;;;;;5012145;28;58892;-80
2024/02/24 09:01:36;;;;;;;1.90;0.40;;;;;;;;;;5024790;28;58413;-79
2024/02/24 09:04:03;;;;;;;0.80;0.50;;;;;;;;;;5025981;28;59490;-80
2024/02/24 09:06:30;;;;;;;0.60;0.40;;;;;;;;;;5024292;28;58927;-80
2024/02/24 09:08:56;;;;;;;0.60;0.40;;;;;;;;;;5022752;28;59593;-80
2024/02/24 09:11:21;;;;;;;0.75;0.60;;;;;;;;;;5024357;28;59153;-79
2024/02/24 09:13:47;;;;;;;2.17;0.30;;;;;;;;;;5025804;28;58249;-80
2024/02/24 09:16:14;;;;;;;0.52;0.45;;;;;;;;;;5026829;28;60347;-80
2024/02/24 09:18:39;;;;;;;0.67;0.50;;;;;;;;;;5023946;28;59862;-80
2024/02/24 09:21:07;;;;;;;0.30;0.30;;;;;;;;;;5025405;28;58429;-80
2024/02/24 09:23:32;;;;;;;0.35;0.22;;;;;;;;;;5023564;28;59809;-79
2024/02/24 09:25:58;;;;;;;0.30;0.30;;;;;;;;;;5025222;28;58512;-80
2024/02/24 09:28:23;;;;;;;0.60;0.30;;;;;;;;;;5023830;28;58449;-80
2024/02/24 09:30:48;;;;;;;0.63;0.40;;;;;;;;;;5023666;28;58828;-81
2024/02/24 09:33:13;;;;;;;0.90;0.47;;;;;;;;;;5025032;28;58401;-81
2024/02/24 09:35:38;;;;;;;0.57;0.40;;;;;;;;;;5024088;28;59502;-79
2024/02/24 09:38:03;;;;;;;0.65;0.30;;;;;;;;;;5025625;28;59912;-80
2024/02/24 09:40:29;;;;;;;1.27;0.60;;;;;;;;;;5029805;28;58470;-81
2024/02/24 09:43:00;;;;;;;1.40;0.77;;;;;;;;;;5028350;28;59689;-80
2024/02/24 09:45:26;;;;;;;1.17;0.40;;;;;;;;;;5027227;28;58394;-80
2024/02/24 09:47:52;;;;;;;1.75;0.80;;;;;;;;;;5025833;28;58441;-78
2024/02/24 09:50:17;;;;;;;2.67;0.50;;;;;;;;;;5027965;28;59411;-78
2024/02/24 09:52:43;;;;;;;3.77;0.43;;;;;;;;;;5027821;28;58307;-78
2024/02/24 09:55:08;;;;;;;1.23;1.13;;;;;;;;;;5029586;28;59117;-79
2024/02/24 09:57:36;;;;;;;1.77;0.55;;;;;;;;;;5027096;28;61050;-78
2024/02/24 10:00:01;;;;;;;;;;;;;;;;;;5029261;28;58476;-78
2024/02/24 10:02:27;;;;;;;3.33;0.60;;;;;;;;;;5028076;28;58474;-79
2024/02/24 10:04:53;;;;;;;1.80;0.50;;;;;;;;;;5027392;28;60037;-78
2024/02/24 10:07:18;;;;;;;1.23;0.40;;;;;;;;;;5025197;28;58534;-80
2024/02/24 10:09:43;;;;;;;2.00;0.37;;;;;;;;;;5028098;28;59336;-82
2024/02/24 10:12:08;;;;;;;2.13;0.60;;;;;;;;;;5027216;28;58716;-81
2024/02/24 10:14:33;;;;;;;3.97;0.47;;;;;;;;;;5027613;28;59426;-82
2024/02/24 10:16:59;;;;;;;1.13;0.55;;;;;;;;;;5025991;28;59893;-83
2024/02/24 10:19:28;;;;;;;1.52;0.50;;;;;;;;;;5026562;28;58502;-82
2024/02/24 10:21:53;;;;;;;;;;;;;;;;;;5028070;28;58748;-83
2024/02/24 10:24:18;;;;;;;3.05;0.43;;;;;;;;;;5027754;28;58294;-82
2024/02/24 10:26:49;;;;;;;0.30;0.30;;;;;;;;;;5028019;28;58665;-82
2024/02/24 10:29:15;;;;;;;1.00;0.35;;;;;;;;;;5028236;28;62663;-83
2024/02/24 10:31:41;;;;;;;0.90;0.50;;;;;;;;;;5027449;28;58446;-82
2024/02/24 10:34:07;;;;;;;1.20;0.60;;;;;;;;;;5027626;28;58458;-82
2024/02/24 10:36:33;;;;;;;1.58;0.52;;;;;;;;;;5019713;28;58383;-82
2024/02/24 10:38:59;;;;;;;3.28;1.20;;;;;;;;;;5013879;28;58299;-83
2024/02/24 10:41:24;;;;;;;2.92;0.50;;;;;;;;;;5007338;28;58494;-83
2024/02/24 10:43:50;;;;;;;1.27;0.50;;;;;;;;;;5008854;28;59125;-81
2024/02/24 10:46:16;;;;;;;2.47;0.75;;;;;;;;;;5007486;28;58542;-83
2024/02/24 10:48:41;;;;;;;0.73;0.52;;;;;;;;;;5010498;28;60243;-82
2024/02/24 10:51:07;;;;;;;0.73;0.50;;;;;;;;;;5016342;28;58948;-79
2024/02/24 10:53:32;;;;;;;0.43;0.40;;;;;;;;;;5028989;28;58446;-76
2024/02/24 10:56:01;;;;;;;1.00;0.50;;;;;;;;;;5019271;28;58365;-77
2024/02/24 10:58:26;;;;;;;0.65;0.35;;;;;;;;;;5024502;28;58632;-77
2024/02/24 11:00:53;;;;;;;0.53;0.53;;;;;;;;;;5026107;28;60404;-77
2024/02/24 11:03:21;;;;;;;1.95;0.50;;;;;;;;;;5021456;28;58919;-77
2024/02/24 11:05:48;;;;;;;1.83;0.70;;;;;;;;;;5005466;28;58746;-77
2024/02/24 11:08:32;;;;;;;1.20;0.65;;;;;;;;;;5028234;28;59570;-77
2024/02/24 11:11:01;;;;;;;1.00;0.90;;;;;;;;;;5024788;28;58901;-76
2024/02/24 11:13:26;;;;;;;1.25;0.93;;;;;;;;;;5019323;28;58383;-76
2024/02/24 11:15:55;;;;;;;1.20;0.68;;;;;;;;;;5018161;28;60107;-77
2024/02/24 11:18:40;;;;;;;1.05;0.40;;;;;;;;;;5022076;28;58357;-77
2024/02/24 11:21:05;;;;;;;1.02;0.73;;;;;;;;;;5016980;28;59324;-78
2024/02/24 11:23:33;;;;;;;4.03;1.17;;;;;;;;;;5026392;28;59796;-77
2024/02/24 11:26:12;;;;;;;0.65;0.50;;;;;;;;;;5026481;27;58404;-77
2024/02/24 11:28:38;;;;;;;2.83;0.73;;;;;;;;;;5012884;28;59793;-78
2024/02/24 11:31:03;;;;;;;0.88;0.60;;;;;;;;;;5020071;28;58608;-77
2024/02/24 11:33:38;;;;;;;2.03;0.70;;;;;;;;;;5027060;28;58545;-77
2024/02/24 11:36:04;;;;;;;3.10;0.55;;;;;;;;;;5024978;28;58504;-78
2024/02/24 11:38:29;;;;;;;2.15;0.60;;;;;;;;;;5024466;28;58808;-77
2024/02/24 11:40:54;;;;;;;2.60;0.73;;;;;;;;;;5008923;28;59670;-77
2024/02/24 11:43:20;;;;;;;0.63;0.63;;;;;;;;;;5015955;28;59920;-78
2024/02/24 11:45:45;;;;;;;1.08;0.98;;;;;;;;;;5018562;28;58477;-78
2024/02/24 11:48:10;;;;;;;2.40;0.90;;;;;;;;;;5019000;28;60090;-78
2024/02/24 11:50:36;;;;;;;0.63;0.43;;;;;;;;;;5026590;28;58345;-76
2024/02/24 11:53:02;;;;;;;1.58;0.40;;;;;;;;;;5025000;28;58502;-74
2024/02/24 11:55:27;;;;;;;2.92;1.30;;;;;;;;;;5019649;28;58882;-75
2024/02/24 11:57:52;;;;;;;3.20;0.60;;;;;;;;;;5018356;28;58916;-74
2024/02/24 12:00:17;;;;;;;0.52;0.50;;;;;;;;;;5025056;28;58484;-76
2024/02/24 12:02:43;;;;;;;1.75;0.93;;;;;;;;;;5016265;28;58808;-74
2024/02/24 12:05:14;;;;;;;0.57;0.50;;;;;;;;;;5014636;28;58386;-73
2024/02/24 12:07:39;;;;;;;1.08;0.45;;;;;;;;;;5012672;28;58631;-73
2024/02/24 12:10:05;;;;;;;2.30;1.02;;;;;;;;;;5020804;28;59600;-79
2024/02/24 12:12:31;;;;;;;0.45;0.45;;;;;;;;;;5024218;28;58532;-79
2024/02/24 12:14:56;;;;;;;1.30;0.30;;;;;;;;;;5024967;28;59496;-79
2024/02/24 12:17:21;;;;;;;0.50;0.50;;;;;;;;;;5023606;28;58726;-79
2024/02/24 12:19:46;;;;;;;1.13;0.90;;;;;;;;;;5028475;28;58444;-80
2024/02/24 12:22:12;;;;;;;1.57;0.50;;;;;;;;;;5020036;28;59535;-79
2024/02/24 12:24:38;;;;;;;0.85;0.45;;;;;;;;;;5019258;28;58430;-80
2024/02/24 12:27:03;;;;;;;2.30;0.52;;;;;;;;;;5023883;28;59339;-79
2024/02/24 12:29:29;;;;;;;0.77;0.50;;;;;;;;;;5014761;28;59985;-80
2024/02/24 12:31:55;;;;;;;1.17;1.08;;;;;;;;;;5015364;28;58346;-79
2024/02/24 12:34:20;;;;;;;0.40;0.38;;;;;;;;;;5006525;28;59492;-79
2024/02/24 12:36:46;;;;;;;0.50;0.50;;;;;;;;;;5007153;28;59631;-79
2024/02/24 12:39:11;;;;;;;1.50;0.50;;;;;;;;;;5014057;28;58309;-80
2024/02/24 12:41:36;;;;;;;1.33;0.47;;;;;;;;;;5017649;28;59307;-80
2024/02/24 12:44:03;;;;;;;1.10;0.90;;;;;;;;;;5015887;28;59412;-80
2024/02/24 12:46:28;;;;;;;3.22;0.75;;;;;;;;;;5023299;28;60272;-79
2024/02/24 12:48:54;;;;;;;0.73;0.37;;;;;;;;;;5028994;28;59065;-80
2024/02/24 12:51:20;;;;;;;1.65;0.93;;;;;;;;;;5022055;28;59510;-79
2024/02/24 12:53:46;;;;;;;2.25;1.35;;;;;;;;;;5027253;28;59379;-81
2024/02/24 12:56:11;;;;;;;0.73;0.40;;;;;;;;;;5027170;28;59567;-82
2024/02/24 12:58:38;;;;;;;2.13;0.57;;;;;;;;;;5027005;28;58583;-82
2024/02/24 13:01:03;;;;;;;4.35;0.75;;;;;;;;;;5021775;28;58560;-82
2024/02/24 13:03:29;;;;;;;0.30;0.30;;;;;;;;;;5016007;28;58727;-81
2024/02/24 13:05:54;;;;;;;0.83;0.27;;;;;;;;;;5024629;28;59413;-81
2024/02/24 13:08:19;;;;;;;0.90;0.47;;;;;;;;;;5012901;28;58975;-81
2024/02/24 13:10:44;;;;;;;0.47;0.47;;;;;;;;;;5023816;28;58212;-77
2024/02/24 13:13:10;;;;;;;0.52;0.20;;;;;;;;;;5026831;28;60168;-77
2024/02/24 13:15:35;;;;;;;0.90;0.40;;;;;;;;;;5022673;28;58909;-76
2024/02/24 13:18:01;;;;;;;2.13;0.30;;;;;;;;;;5016834;28;58403;-77
2024/02/24 13:20:26;;;;;;;1.87;0.30;;;;;;;;;;5028303;28;59403;-81
2024/02/24 13:22:51;;;;;;;0.70;0.30;;;;;;;;;;5026798;28;58827;-81
2024/02/24 13:25:16;;;;;;;0.57;0.53;;;;;;;;;;5020124;28;58501;-82
2024/02/24 13:27:43;;;;;;;3.57;0.93;;;;;;;;;;5022321;28;58816;-82
2024/02/24 13:30:09;;;;;;;0.87;0.53;;;;;;;;;;5025335;28;58630;-81
2024/02/24 13:32:34;;;;;;;1.40;0.83;;;;;;;;;;5031212;28;59493;-81
2024/02/24 13:34:59;;;;;;;0.77;0.60;;;;;;;;;;5019666;28;58591;-81
2024/02/24 13:37:26;;;;;;;1.00;0.73;;;;;;;;;;5025081;28;58428;-81
2024/02/24 13:39:53;;;;;;;3.53;1.45;;;;;;;;;;5024937;28;59540;-81
2024/02/24 13:42:18;;;;;;;0.75;0.50;;;;;;;;;;5022047;28;60218;-81
2024/02/24 13:44:43;;;;;;;3.17;0.63;;;;;;;;;;5009787;28;58354;-80
2024/02/24 13:47:09;;;;;;;4.00;1.37;;;;;;;;;;5024968;28;59749;-81
2024/02/24 13:49:34;;;;;;;2.13;0.77;;;;;;;;;;5029008;28;58569;-79
2024/02/24 13:51:59;;;;;;;1.13;0.95;;;;;;;;;;5022652;28;58324;-81
2024/02/24 13:54:33;;;;;;;1.38;0.93;;;;;;;;;;5019399;28;58610;-80
2024/02/24 13:56:59;;;;;;;0.85;0.80;;;;;;;;;;5024698;28;58449;-81
2024/02/24 13:59:24;;;;;;;3.38;1.33;;;;;;;;;;5018839;28;59619;-81
2024/02/24 14:01:50;;;;;;;4.60;1.25;;;;;;;;;;5024423;28;58999;-80
2024/02/24 14:04:15;;;;;;;2.17;0.95;;;;;;;;;;5022729;28;58296;-81
2024/02/24 14:06:41;;;;;;;3.72;1.90;;;;;;;;;;5020254;28;59338;-81
2024/02/24 14:09:06;;;;;;;3.53;1.53;;;;;;;;;;5028699;28;58800;-81
2024/02/24 14:11:31;;;;;;;2.13;1.20;;;;;;;;;;5029214;28;58926;-80
2024/02/24 14:13:57;;;;;;;5.45;1.45;;;;;;;;;;5024996;28;58392;-81
2024/02/24 14:16:22;;;;;;;5.65;1.33;;;;;;;;;;5028082;28;58429;-81
2024/02/24 14:18:47;;;;;;;4.50;1.35;;;;;;;;;;5022109;28;60418;-81
2024/02/24 14:21:12;;;;;;;2.53;1.00;;;;;;;;;;5018005;28;59114;-73
2024/02/24 14:23:38;;;;;;;2.75;1.15;;;;;;;;;;5017256;28;58286;-74
2024/02/24 14:26:04;;;;;;;2.75;1.15;;;;;;;;;;5017266;28;58911;-75
2024/02/24 14:28:29;;;;;;;3.85;1.70;;;;;;;;;;5020761;28;59814;-73
2024/02/24 14:30:54;;;;;;;2.03;1.10;;;;;;;;;;5028658;28;58343;-81
2024/02/24 14:33:19;;;;;;;4.47;1.50;;;;;;;;;;5026443;27;58881;-80
2024/02/24 14:35:45;;;;;;;4.10;1.20;;;;;;;;;;5028872;28;58473;-79